Time;durP1;ratioP1;P1;durP2;ratioP2;P2;SDS_P1;SDS_P2;PMS_P1;PMS_P2;Temp;Humidity;BMP_temperature;BMP_pressure;BME280_temperature;BME280_humidity;BME280_pressure;Samples;Min_cycle;Max_cycle;Signal;HPM_P1;HPM_P2
2020/12/01 00:03:58;;;;;;;41.38;28.02;;;;;;;0.94;82.99;100305.78;9911529;28;20061;-61
2020/12/01 00:09:00;;;;;;;35.10;26.83;;;;;;;0.97;82.86;100295.16;9926952;28;20077;-58
2020/12/01 00:14:01;;;;;;;37.97;25.73;;;;;;;0.80;83.94;100276.66;9915225;28;20140;-64
2020/12/01 00:19:02;;;;;;;36.65;26.75;;;;;;;0.80;85.07;100266.19;9906813;28;20503;-60
2020/12/01 00:24:04;;;;;;;40.00;29.20;;;;;;;0.74;85.49;100267.25;9912578;28;20133;-61
2020/12/01 00:29:06;;;;;;;37.50;26.60;;;;;;;0.83;85.33;100271.28;9899918;28;20057;-63
2020/12/01 00:34:12;;;;;;;36.85;25.60;;;;;;;0.72;86.23;100236.78;9907414;28;20049;-63
2020/12/01 00:39:14;;;;;;;35.15;25.90;;;;;;;0.77;86.87;100235.69;9919325;28;24221;-62
2020/12/01 00:44:15;;;;;;;31.77;24.33;;;;;;;0.81;85.83;100220.69;9904200;28;20113;-59
2020/12/01 00:49:17;;;;;;;32.22;24.17;;;;;;;0.88;85.55;100237.88;9911741;28;20049;-60
2020/12/01 00:54:18;;;;;;;31.23;23.17;;;;;;;0.80;85.55;100226.88;9921271;28;20502;-60
2020/12/01 00:59:19;;;;;;;33.53;23.77;;;;;;;1.00;85.33;100220.81;9909912;28;20045;-58
2020/12/01 01:04:21;;;;;;;33.35;25.88;;;;;;;1.02;84.07;100198.84;9914194;28;20053;-62
2020/12/01 01:09:22;;;;;;;31.77;23.52;;;;;;;0.90;85.08;100183.63;9903026;28;20060;-60
2020/12/01 01:14:23;;;;;;;33.60;25.08;;;;;;;0.93;85.47;100178.28;9898157;28;20057;-63
2020/12/01 01:19:25;;;;;;;37.22;25.95;;;;;;;0.88;85.71;100175.81;9901114;28;20053;-63
2020/12/01 01:24:26;;;;;;;34.83;24.27;;;;;;;1.08;85.53;100171.50;9913056;28;23720;-61
2020/12/01 01:29:28;;;;;;;38.50;26.80;;;;;;;1.03;84.88;100174.31;9914956;28;20515;-60
2020/12/01 01:34:29;;;;;;;34.17;24.73;;;;;;;1.13;84.78;100168.72;9907959;28;20161;-59
2020/12/01 01:39:31;;;;;;;35.92;26.67;;;;;;;1.06;85.09;100160.25;9919685;28;20056;-60
2020/12/01 01:44:32;;;;;;;35.00;24.98;;;;;;;1.06;85.43;100158.47;9922281;28;20209;-64
2020/12/01 01:49:39;;;;;;;38.03;26.35;;;;;;;1.07;85.71;100138.38;9910257;28;20064;-59
2020/12/01 01:54:44;;;;;;;35.50;25.38;;;;;;;1.04;85.76;100155.06;9903740;28;20056;-61
2020/12/01 01:59:49;;;;;;;37.50;27.10;;;;;;;0.99;85.41;100128.22;9906064;28;20395;-59
2020/12/01 02:04:50;;;;;;;32.03;24.37;;;;;;;1.12;85.39;100135.53;9915913;28;20443;-63
2020/12/01 02:09:56;;;;;;;36.05;25.77;;;;;;;1.26;84.91;100137.56;9912943;28;20060;-61
2020/12/01 02:15:07;;;;;;;33.90;25.40;;;;;;;1.24;85.26;100135.84;9915559;28;20614;-65
2020/12/01 02:20:16;;;;;;;37.15;25.27;;;;;;;1.21;85.56;100127.28;9914461;28;20048;-58
2020/12/01 02:25:19;;;;;;;31.45;23.27;;;;;;;1.34;85.10;100125.81;9916027;28;20065;-65
2020/12/01 02:30:20;;;;;;;31.92;25.10;;;;;;;1.32;84.41;100096.19;9903060;28;22122;-60
2020/12/01 02:35:22;;;;;;;30.73;23.13;;;;;;;1.45;84.55;100095.63;9906690;28;20058;-60
2020/12/01 02:40:23;;;;;;;33.70;25.17;;;;;;;1.44;84.62;100091.28;9908715;28;20057;-64
2020/12/01 02:45:25;;;;;;;33.88;26.02;;;;;;;1.33;85.30;100076.91;9922879;28;22962;-60
2020/12/01 02:50:26;;;;;;;33.65;25.27;;;;;;;1.49;84.49;100077.06;9906725;28;20077;-62
2020/12/01 02:55:38;;;;;;;35.30;25.40;;;;;;;1.32;85.76;100069.97;9910684;28;20118;-61
2020/12/01 03:00:39;;;;;;;34.47;25.45;;;;;;;1.50;85.22;100063.03;9903413;28;20633;-61
2020/12/01 03:05:41;;;;;;;36.35;25.17;;;;;;;1.38;85.82;100053.94;9904662;28;20064;-59
2020/12/01 03:10:42;;;;;;;32.22;24.55;;;;;;;1.42;85.62;100055.47;9906320;28;20387;-60
2020/12/01 03:15:45;;;;;;;32.75;24.15;;;;;;;1.39;85.89;100050.38;9898462;28;20128;-61
2020/12/01 03:20:47;;;;;;;30.48;24.02;;;;;;;1.35;85.69;100034.84;9897674;28;20840;-59
2020/12/01 03:25:48;;;;;;;35.78;25.67;;;;;;;1.34;85.62;100034.03;9899455;28;20415;-63
2020/12/01 03:30:49;;;;;;;32.50;24.20;;;;;;;1.46;85.56;100029.16;9908228;28;20057;-59
2020/12/01 03:35:51;;;;;;;33.92;25.27;;;;;;;1.53;84.61;100031.41;9914469;28;20135;-63
2020/12/01 03:40:52;;;;;;;29.20;23.58;;;;;;;1.47;85.23;100039.56;9914916;28;24714;-64
2020/12/01 03:45:54;;;;;;;28.58;22.85;;;;;;;1.31;85.63;100023.66;9912745;28;20592;-60
2020/12/01 03:50:55;;;;;;;31.77;23.42;;;;;;;1.38;86.04;100016.34;9906991;28;20052;-63
2020/12/01 03:55:57;;;;;;;28.88;22.65;;;;;;;1.47;86.33;100009.84;9916013;28;22605;-60
2020/12/01 04:00:58;;;;;;;30.58;21.55;;;;;;;1.54;85.27;99995.50;9917408;28;22217;-59
2020/12/01 04:05:59;;;;;;;27.52;21.95;;;;;;;1.51;85.14;99990.41;9913728;28;20053;-61
2020/12/01 04:11:03;;;;;;;26.38;21.15;;;;;;;1.46;85.36;99995.88;9912205;28;20498;-62
2020/12/01 04:16:04;;;;;;;28.17;22.00;;;;;;;1.50;85.35;99989.56;9918591;28;20050;-60
2020/12/01 04:21:06;;;;;;;25.90;21.00;;;;;;;1.56;85.23;100004.16;9913334;28;22117;-59
2020/12/01 04:26:07;;;;;;;25.50;19.90;;;;;;;1.56;85.21;99996.28;9917416;28;20056;-59
2020/12/01 04:31:09;;;;;;;24.75;20.52;;;;;;;1.61;84.65;99994.31;9907874;28;24936;-60
2020/12/01 04:36:10;;;;;;;29.67;22.60;;;;;;;1.58;85.16;99989.22;9911110;28;20064;-63
2020/12/01 04:41:12;;;;;;;25.77;20.15;;;;;;;1.63;84.44;99974.09;9916346;28;20053;-61
2020/12/01 04:46:19;;;;;;;26.98;21.65;;;;;;;1.62;84.78;99964.50;9908511;28;20106;-60
2020/12/01 04:51:20;;;;;;;24.67;20.20;;;;;;;1.53;84.91;99959.69;9905028;28;20092;-59
2020/12/01 04:56:49;;;;;;;25.27;19.67;;;;;;;1.76;84.20;99980.44;9924663;28;20067;-62
2020/12/01 05:02:05;;;;;;;26.73;20.88;;;;;;;1.76;84.12;99976.97;9913556;28;20057;-61
2020/12/01 05:07:46;;;;;;;29.23;22.17;;;;;;;1.74;84.23;99970.94;9918672;28;20112;-64
2020/12/01 05:12:58;;;;;;;29.98;21.75;;;;;;;1.75;84.17;99973.50;9917841;28;20166;-61
2020/12/01 05:18:17;;;;;;;26.70;21.33;;;;;;;1.87;83.83;99966.78;9919607;28;20061;-61
2020/12/01 05:23:40;;;;;;;27.05;20.73;;;;;;;1.89;83.98;99978.09;9915430;28;24152;-59
2020/12/01 05:28:45;;;;;;;25.92;21.63;;;;;;;1.96;83.52;99983.03;9908653;28;20175;-59
2020/12/01 05:33:59;;;;;;;29.45;22.95;;;;;;;1.88;83.36;99988.66;9901469;28;20106;-62
2020/12/01 05:39:00;;;;;;;28.63;22.42;;;;;;;1.86;83.95;99985.25;9913675;28;20050;-59
2020/12/01 05:44:24;;;;;;;30.85;23.15;;;;;;;1.98;83.38;99984.63;9912528;28;20447;-59
2020/12/01 05:49:35;;;;;;;33.17;22.98;;;;;;;2.16;83.10;99989.91;9894592;28;24088;-60
2020/12/01 05:54:40;;;;;;;27.35;21.25;;;;;;;2.14;82.74;99978.66;9923975;28;20057;-64
2020/12/01 06:00:10;;;;;;;30.20;22.35;;;;;;;1.97;83.58;99980.34;9912391;28;20077;-59
2020/12/01 06:05:16;;;;;;;24.70;21.10;;;;;;;2.02;82.95;99970.44;9914572;28;20055;-60
2020/12/01 06:10:31;;;;;;;26.02;21.30;;;;;;;2.08;83.32;99980.63;9900904;28;20191;-63
2020/12/01 06:15:36;;;;;;;;;;;;;;;2.09;83.20;99982.34;9896672;28;20132;-63
2020/12/01 06:21:08;;;;;;;26.48;19.17;;;;;;;2.17;83.08;99978.50;9909595;28;22123;-60
2020/12/01 06:26:38;;;;;;;27.98;20.73;;;;;;;2.09;82.86;99976.25;9908748;28;23005;-61
2020/12/01 06:31:50;;;;;;;25.77;19.70;;;;;;;2.20;82.81;99988.84;9912547;28;20056;-60
2020/12/01 06:36:57;;;;;;;24.02;19.55;;;;;;;2.15;83.32;99991.69;9908512;28;21550;-60
2020/12/01 06:42:38;;;;;;;28.15;21.35;;;;;;;2.24;82.73;100000.91;9913177;28;22041;-67
2020/12/01 06:47:41;;;;;;;27.23;20.05;;;;;;;2.18;82.85;99981.03;9908917;28;20050;-58
2020/12/01 06:52:53;;;;;;;28.15;20.95;;;;;;;2.21;83.43;99991.38;9913270;28;20119;-61
2020/12/01 06:58:06;;;;;;;27.35;19.90;;;;;;;2.24;83.03;99998.28;9909702;28;20502;-59
2020/12/01 07:03:09;;;;;;;24.45;19.50;;;;;;;2.07;82.99;99988.59;9911064;28;20913;-62
2020/12/01 07:08:23;;;;;;;24.45;19.80;;;;;;;2.02;83.60;100001.94;9896777;28;20126;-59
2020/12/01 07:13:36;;;;;;;24.70;19.05;;;;;;;1.98;83.85;99989.88;9910037;28;22789;-59
2020/12/01 07:18:46;;;;;;;26.45;19.98;;;;;;;2.15;83.50;100009.22;9904052;28;23887;-59
2020/12/01 07:24:13;;;;;;;25.15;19.17;;;;;;;2.18;82.98;100011.69;9913797;28;20060;-60
2020/12/01 07:29:38;;;;;;;23.70;18.85;;;;;;;2.09;83.43;100011.22;9911810;28;24616;-62
2020/12/01 07:34:42;;;;;;;27.50;18.95;;;;;;;2.12;83.43;100024.22;9917949;28;20056;-62
2020/12/01 07:39:55;;;;;;;24.65;18.92;;;;;;;2.19;83.42;100018.66;9919511;28;21016;-58
2020/12/01 07:44:56;;;;;;;29.23;20.02;;;;;;;2.22;83.02;100018.50;9912766;28;20076;-59
2020/12/01 07:50:02;;;;;;;26.67;19.10;;;;;;;2.17;83.14;100010.00;9910671;28;20049;-60
2020/12/01 07:55:29;;;;;;;24.10;19.40;;;;;;;2.24;83.47;100011.41;9910188;28;20061;-59
2020/12/01 08:00:31;;;;;;;26.08;21.92;;;;;;;2.33;83.22;100023.22;9914507;28;20499;-60
2020/12/01 08:05:32;;;;;;;23.00;18.38;;;;;;;2.29;82.82;100025.16;9920989;28;20061;-60
2020/12/01 08:10:35;;;;;;;22.45;17.42;;;;;;;2.33;82.81;100031.97;9914228;28;20093;-63
2020/12/01 08:15:36;;;;;;;25.33;19.88;;;;;;;2.27;83.49;100027.00;9897769;28;20470;-59
2020/12/01 08:20:39;;;;;;;24.17;19.17;;;;;;;2.33;82.86;100031.97;9916912;28;20064;-60
2020/12/01 08:25:41;;;;;;;28.33;20.02;;;;;;;2.41;82.89;100035.03;9935897;28;20199;-61
2020/12/01 08:31:08;;;;;;;26.85;20.85;;;;;;;2.39;82.49;100042.16;9914821;28;20506;-60
2020/12/01 08:36:24;;;;;;;26.17;20.88;;;;;;;2.38;82.52;100031.72;9913125;28;20088;-61
2020/12/01 08:41:45;;;;;;;23.60;18.92;;;;;;;2.53;82.24;100032.72;9892242;28;20049;-59
2020/12/01 08:46:48;;;;;;;25.58;19.45;;;;;;;2.67;82.01;100038.13;9907583;28;20057;-60
2020/12/01 08:51:57;;;;;;;22.92;18.38;;;;;;;2.55;81.50;100037.00;9908466;28;21862;-59
2020/12/01 08:57:06;;;;;;;25.67;19.23;;;;;;;2.64;81.97;100049.66;9911673;28;22664;-59
2020/12/01 09:02:10;;;;;;;24.90;19.15;;;;;;;2.61;81.57;100062.09;9890724;28;20076;-58
2020/12/01 09:07:14;;;;;;;23.77;18.55;;;;;;;2.60;81.27;100063.03;9918686;28;20157;-58
2020/12/01 09:12:30;;;;;;;23.50;19.75;;;;;;;2.68;81.71;100060.84;9921549;28;20052;-61
2020/12/01 09:17:52;;;;;;;25.23;19.10;;;;;;;2.57;81.81;100060.56;9911730;28;20676;-63
2020/12/01 09:23:11;;;;;;;27.02;19.58;;;;;;;2.56;81.94;100058.84;9916681;28;20061;-59
2020/12/01 09:28:18;;;;;;;24.85;20.27;;;;;;;2.61;81.72;100062.09;9921963;28;20052;-60
2020/12/01 09:33:21;;;;;;;23.58;18.65;;;;;;;2.62;81.63;100058.53;9905213;28;20548;-59
2020/12/01 09:38:23;;;;;;;24.50;19.10;;;;;;;2.60;81.65;100065.66;9915149;28;21830;-61
2020/12/01 09:43:41;;;;;;;23.40;18.88;;;;;;;2.64;81.56;100072.44;9917605;28;20053;-60
2020/12/01 09:48:47;;;;;;;26.52;19.15;;;;;;;2.81;81.73;100071.59;9921416;28;20049;-58
2020/12/01 10:09:08;;;;;;;24.98;19.58;;;;;;;2.67;81.37;100051.25;9913219;28;20054;-58
2020/12/01 10:40:22;;;;;;;22.05;18.75;;;;;;;2.97;80.70;100074.28;9933456;28;20378;-64
2020/12/01 10:45:27;;;;;;;22.80;17.90;;;;;;;2.88;80.86;100090.53;9913334;28;20225;-62
2020/12/01 10:50:30;;;;;;;26.00;19.87;;;;;;;2.92;80.84;100086.81;9913866;28;20157;-59
2020/12/01 10:55:32;;;;;;;25.23;19.02;;;;;;;2.96;81.41;100089.22;9916867;28;20074;-60
2020/12/01 11:00:34;;;;;;;23.60;19.58;;;;;;;3.03;81.10;100095.00;9896888;28;20208;-60
2020/12/01 11:05:36;;;;;;;28.30;20.27;;;;;;;3.10;80.86;100093.75;9919233;28;20079;-60
2020/12/01 11:10:38;;;;;;;26.02;19.45;;;;;;;3.22;80.42;100094.06;9916622;28;20056;-62
2020/12/01 11:15:39;;;;;;;27.67;20.75;;;;;;;3.36;79.77;100096.78;9900286;28;20104;-60
2020/12/01 11:20:40;;;;;;;27.83;21.13;;;;;;;3.33;79.78;100081.16;9911087;28;20409;-62
2020/12/01 11:25:42;;;;;;;27.30;21.00;;;;;;;3.44;79.54;100089.34;9897651;28;21318;-64
2020/12/01 11:30:43;;;;;;;25.38;20.45;;;;;;;3.44;79.83;100093.75;9903862;28;20526;-59
2020/12/01 11:35:44;;;;;;;25.88;20.80;;;;;;;3.29;79.63;100090.19;9913967;28;20063;-60
2020/12/01 11:40:45;;;;;;;29.83;23.73;;;;;;;3.15;80.38;100101.41;9891443;28;20060;-64
2020/12/01 11:45:47;;;;;;;27.13;20.33;;;;;;;3.18;80.60;100102.13;9905393;28;20056;-62
2020/12/01 11:50:48;;;;;;;22.52;18.23;;;;;;;3.42;80.17;100107.00;9904266;28;20051;-60
2020/12/01 11:55:49;;;;;;;24.58;19.63;;;;;;;3.51;79.23;100105.66;9907632;28;20080;-60
2020/12/01 12:00:54;;;;;;;23.90;19.40;;;;;;;3.64;78.95;100111.13;9904027;28;23016;-61
2020/12/01 12:05:55;;;;;;;24.73;20.27;;;;;;;3.62;79.19;100103.31;9914136;28;20064;-60
2020/12/01 12:10:56;;;;;;;24.45;18.58;;;;;;;3.57;79.17;100104.47;9913647;28;20052;-60
2020/12/01 12:15:58;;;;;;;25.85;19.92;;;;;;;3.67;79.26;100111.78;9919892;28;20048;-58
2020/12/01 12:20:59;;;;;;;27.98;20.35;;;;;;;3.67;79.03;100113.59;9899980;28;20058;-62
2020/12/01 12:26:01;;;;;;;26.67;19.52;;;;;;;3.66;79.13;100109.25;9917492;28;20506;-63
2020/12/01 12:31:02;;;;;;;25.52;19.85;;;;;;;3.73;79.21;100115.88;9896694;28;20080;-60
2020/12/01 12:36:08;;;;;;;27.13;19.85;;;;;;;3.69;79.06;100124.88;9886237;28;20049;-60
2020/12/01 12:41:09;;;;;;;25.23;20.35;;;;;;;3.69;78.83;100115.22;9920079;28;20057;-62
2020/12/01 12:46:11;;;;;;;25.20;20.35;;;;;;;3.75;78.48;100114.00;9912068;28;22923;-59
2020/12/01 12:51:13;;;;;;;26.65;19.58;;;;;;;3.82;78.88;100115.38;9918589;28;20068;-59
2020/12/01 12:56:14;;;;;;;26.10;19.70;;;;;;;3.76;78.86;100123.63;9930915;28;20059;-59
2020/12/01 13:01:16;;;;;;;31.50;28.08;;;;;;;3.82;78.89;100115.38;9913844;28;22637;-59
2020/12/01 13:06:17;;;;;;;25.52;19.73;;;;;;;3.84;79.23;100118.81;9911639;28;23059;-59
2020/12/01 13:11:19;;;;;;;28.25;22.23;;;;;;;3.92;79.38;100115.75;9920552;28;22553;-59
2020/12/01 13:16:20;;;;;;;25.27;21.40;;;;;;;3.93;79.38;100127.13;9913674;28;20053;-60
2020/12/01 13:21:21;;;;;;;24.15;18.92;;;;;;;3.99;79.03;100135.50;9908900;28;21316;-59
2020/12/01 13:26:23;;;;;;;28.77;20.92;;;;;;;3.99;78.94;100138.16;9922432;28;20128;-59
2020/12/01 13:31:24;;;;;;;23.55;19.83;;;;;;;4.02;79.59;100131.88;9901710;28;20479;-57
2020/12/01 13:36:26;;;;;;;25.83;20.52;;;;;;;4.05;80.15;100131.69;9892884;28;20230;-58
2020/12/01 13:41:28;;;;;;;29.05;22.45;;;;;;;4.09;79.48;100133.25;9900029;28;20056;-60
2020/12/01 13:46:29;;;;;;;27.20;21.25;;;;;;;4.11;79.36;100135.78;9890695;28;20059;-60
2020/12/01 13:51:32;;;;;;;25.02;20.80;;;;;;;4.04;80.11;100148.47;9883494;28;20062;-60
2020/12/01 13:56:33;;;;;;;26.00;21.13;;;;;;;4.10;79.68;100147.25;9890315;28;20064;-59
2020/12/01 14:01:35;;;;;;;24.70;20.83;;;;;;;4.11;79.81;100155.06;9893119;28;21059;-58
2020/12/01 14:06:37;;;;;;;25.15;20.65;;;;;;;4.04;79.50;100156.38;9893234;28;20093;-59
2020/12/01 14:11:38;;;;;;;28.80;23.58;;;;;;;4.04;79.16;100165.09;9889033;28;20411;-61
2020/12/01 14:16:41;;;;;;;30.42;20.65;;;;;;;4.06;79.76;100159.75;9894539;28;22634;-60
2020/12/01 14:21:43;;;;;;;25.65;19.98;;;;;;;4.01;79.43;100167.06;9890334;28;20057;-59
2020/12/01 14:26:44;;;;;;;22.90;18.92;;;;;;;4.01;79.93;100167.06;9904581;28;20057;-59
2020/12/01 14:31:47;;;;;;;24.73;19.98;;;;;;;4.03;79.60;100176.56;9914904;28;20080;-57
2020/12/01 14:36:49;;;;;;;26.05;20.33;;;;;;;4.05;79.80;100179.13;9905164;28;20543;-60
2020/12/01 14:42:06;;;;;;;25.08;19.85;;;;;;;4.02;80.01;100184.56;9919587;28;20483;-60
2020/12/01 14:47:21;;;;;;;29.48;20.95;;;;;;;4.01;79.80;100182.88;9911085;28;20494;-58
2020/12/01 14:52:53;;;;;;;28.60;21.38;;;;;;;4.04;79.90;100195.88;9911106;28;20052;-59
2020/12/01 14:58:13;;;;;;;29.55;22.08;;;;;;;4.06;79.93;100204.53;9908871;28;20053;-59
2020/12/01 15:03:38;;;;;;;27.58;20.10;;;;;;;4.04;79.81;100215.16;9904761;28;20057;-59
2020/12/01 15:09:04;;;;;;;26.48;21.75;;;;;;;4.02;80.09;100210.91;9910523;28;20073;-59
2020/12/01 15:14:05;;;;;;;26.02;20.05;;;;;;;4.02;79.89;100221.44;9911287;28;20059;-61
2020/12/01 15:19:07;;;;;;;28.60;20.75;;;;;;;4.03;80.25;100228.41;9907906;28;20067;-59
2020/12/01 15:24:17;;;;;;;25.17;19.35;;;;;;;3.98;80.01;100225.16;9913742;28;21478;-58
2020/12/01 15:29:19;;;;;;;24.65;18.38;;;;;;;3.97;80.34;100212.94;9905527;28;20194;-60
2020/12/01 15:34:21;;;;;;;23.73;19.52;;;;;;;3.92;80.48;100202.66;9895446;28;20091;-59
2020/12/01 15:39:23;;;;;;;26.90;21.30;;;;;;;3.89;80.37;100211.56;9915437;28;22629;-59
2020/12/01 15:44:27;;;;;;;27.77;20.30;;;;;;;4.00;80.13;100226.78;9922788;28;20056;-58
2020/12/01 15:49:28;;;;;;;28.63;21.30;;;;;;;3.92;80.42;100223.72;9922625;28;20075;-59
2020/12/01 15:54:51;;;;;;;30.98;22.75;;;;;;;3.97;79.63;100223.47;9920257;28;20111;-58
2020/12/01 16:00:10;;;;;;;30.85;22.80;;;;;;;3.94;80.18;100232.38;9920907;28;20132;-59
2020/12/01 16:05:44;;;;;;;30.40;22.25;;;;;;;3.99;79.90;100229.50;9914633;28;20229;-59
2020/12/01 16:11:30;;;;;;;29.42;22.42;;;;;;;4.01;79.66;100240.81;9938487;28;20362;-61
2020/12/01 16:16:34;;;;;;;30.48;21.75;;;;;;;4.05;79.74;100245.84;9937876;28;20137;-61
2020/12/01 16:21:42;;;;;;;29.50;22.43;;;;;;;4.05;79.88;100247.59;9910088;28;20392;-61
2020/12/01 16:27:05;;;;;;;32.13;21.98;;;;;;;4.06;79.82;100254.59;9909973;28;20282;-59
2020/12/01 16:32:07;;;;;;;35.13;22.83;;;;;;;4.07;79.50;100269.47;9914923;28;20143;-59
2020/12/01 16:37:17;;;;;;;34.03;24.65;;;;;;;4.10;79.70;100282.47;9895396;28;22363;-59
2020/12/01 16:42:36;;;;;;;36.80;23.25;;;;;;;4.08;79.97;100276.41;9910799;28;20709;-60
2020/12/01 16:48:24;;;;;;;32.70;23.80;;;;;;;4.12;79.96;100280.59;9920819;28;20526;-59
2020/12/01 16:54:07;;;;;;;36.72;22.70;;;;;;;4.16;80.29;100276.88;9928437;28;20356;-59
2020/12/01 16:59:41;;;;;;;35.17;25.33;;;;;;;4.07;80.88;100278.22;9896903;28;20597;-60
2020/12/01 17:05:05;;;;;;;36.92;24.85;;;;;;;4.06;80.37;100273.88;9932112;28;20521;-60
2020/12/01 17:10:26;;;;;;;34.42;23.58;;;;;;;4.14;80.57;100291.91;9904596;28;20415;-59
2020/12/01 17:15:47;;;;;;;36.72;23.33;;;;;;;4.09;80.67;100296.56;9922261;28;20052;-62
2020/12/01 17:20:49;;;;;;;30.15;21.40;;;;;;;4.02;80.33;100298.69;9916320;28;24347;-59
2020/12/01 17:25:50;;;;;;;33.08;22.40;;;;;;;4.13;80.85;100320.97;9919278;28;20049;-62
2020/12/01 17:31:10;;;;;;;38.80;22.85;;;;;;;4.08;80.89;100323.84;9914063;28;20055;-61
2020/12/01 17:36:50;;;;;;;37.50;24.42;;;;;;;4.07;81.05;100327.44;9911101;28;20061;-59
2020/12/01 17:42:21;;;;;;;39.25;26.08;;;;;;;4.04;81.32;100335.50;9917065;28;20557;-59
2020/12/01 17:47:51;;;;;;;37.83;22.95;;;;;;;4.09;81.48;100344.00;9910084;28;20056;-59
2020/12/01 17:53:33;;;;;;;38.50;21.63;;;;;;;4.08;81.63;100347.53;9922350;28;20411;-60
2020/12/01 17:58:36;;;;;;;38.13;22.00;;;;;;;4.07;82.01;100349.34;9941725;28;21885;-61
2020/12/01 18:03:38;;;;;;;34.22;21.63;;;;;;;4.04;81.73;100346.88;9904929;28;20045;-60
2020/12/01 18:08:39;;;;;;;35.95;21.77;;;;;;;4.01;81.64;100343.56;9909835;28;20620;-62
2020/12/01 18:13:52;;;;;;;35.58;22.55;;;;;;;4.06;81.59;100358.16;9916760;28;20059;-59
2020/12/01 18:19:06;;;;;;;38.15;23.25;;;;;;;4.08;81.25;100360.72;9913699;28;23119;-57
2020/12/01 18:24:22;;;;;;;37.83;21.98;;;;;;;4.09;81.57;100370.34;9916680;28;20056;-58
2020/12/01 18:29:35;;;;;;;36.22;23.35;;;;;;;4.14;81.39;100378.84;9913498;28;20817;-58
2020/12/01 18:34:46;;;;;;;39.05;23.55;;;;;;;4.12;81.43;100385.13;9922179;28;21667;-58
2020/12/01 18:39:48;;;;;;;41.33;25.38;;;;;;;4.17;81.67;100378.69;9905745;28;20749;-58
2020/12/01 18:44:55;;;;;;;38.53;23.98;;;;;;;4.19;81.22;100387.38;9915351;28;20719;-61
2020/12/01 18:49:56;;;;;;;39.50;22.17;;;;;;;4.25;81.25;100388.84;9922282;28;20049;-59
2020/12/01 18:54:57;;;;;;;40.75;24.92;;;;;;;4.25;81.18;100394.13;9922134;28;22230;-58
2020/12/01 18:59:59;;;;;;;37.42;24.65;;;;;;;4.24;81.05;100381.88;9906578;28;20676;-59
2020/12/01 19:05:00;;;;;;;34.08;21.50;;;;;;;4.23;81.17;100388.06;9919098;28;20061;-60
2020/12/01 19:10:03;;;;;;;36.75;23.33;;;;;;;4.23;80.87;100388.94;9918811;28;20049;-62
2020/12/01 19:15:06;;;;;;;118.32;85.85;;;;;;;4.46;81.27;100399.19;9898449;28;20497;-64
2020/12/01 19:20:07;;;;;;;50.75;35.30;;;;;;;4.51;80.51;100392.75;9913361;28;20242;-65
2020/12/01 19:25:08;;;;;;;34.88;23.05;;;;;;;4.43;80.28;100395.78;9925193;28;20049;-59
2020/12/01 19:30:10;;;;;;;34.17;22.80;;;;;;;4.37;80.46;100396.09;9921624;28;20831;-62
2020/12/01 19:35:12;;;;;;;36.58;22.27;;;;;;;4.41;80.43;100415.25;9923874;28;20130;-59
2020/12/01 19:40:15;;;;;;;41.35;23.63;;;;;;;4.45;80.27;100424.69;9913742;28;20155;-59
2020/12/01 19:45:17;;;;;;;40.35;25.08;;;;;;;4.43;80.48;100423.94;9924397;28;20052;-60
2020/12/01 19:50:22;;;;;;;40.72;26.25;;;;;;;4.43;80.37;100431.84;9913466;28;20075;-60
2020/12/01 19:55:23;;;;;;;36.70;25.83;;;;;;;4.46;79.88;100436.06;9918808;28;20058;-60
2020/12/01 20:00:29;;;;;;;37.17;26.45;;;;;;;4.41;79.94;100431.06;9916851;28;22538;-60
2020/12/01 20:05:35;;;;;;;39.42;26.02;;;;;;;4.41;79.62;100438.97;9907694;28;20053;-60
2020/12/01 20:10:36;;;;;;;39.08;26.98;;;;;;;4.36;80.19;100448.91;9917014;28;20081;-62
2020/12/01 20:15:37;;;;;;;40.83;27.25;;;;;;;4.36;80.04;100451.53;9898252;28;20084;-60
2020/12/01 20:20:39;;;;;;;39.83;25.90;;;;;;;4.36;80.33;100462.06;9904584;28;20054;-59
2020/12/01 20:25:58;;;;;;;46.47;28.67;;;;;;;4.35;80.05;100465.63;9915372;28;20531;-60
2020/12/01 20:31:02;;;;;;;39.30;25.10;;;;;;;4.31;80.00;100466.72;9906438;28;20055;-60
2020/12/01 20:36:06;;;;;;;37.27;26.10;;;;;;;4.33;79.96;100467.50;9915681;28;20049;-62
2020/12/01 20:41:08;;;;;;;38.63;24.27;;;;;;;4.38;79.73;100479.53;9908725;28;20057;-60
2020/12/01 20:46:09;;;;;;;38.13;24.65;;;;;;;4.38;79.79;100476.91;9905347;28;20080;-61
2020/12/01 20:51:12;;;;;;;37.17;24.92;;;;;;;4.40;79.72;100480.28;9887734;28;20049;-61
2020/12/01 20:56:14;;;;;;;34.10;23.17;;;;;;;4.35;79.33;100481.44;9892354;28;20118;-64
2020/12/01 21:01:15;;;;;;;37.90;24.63;;;;;;;4.39;79.07;100477.72;9898271;28;24758;-61
2020/12/01 21:06:17;;;;;;;34.15;22.98;;;;;;;4.40;79.14;100490.00;9905617;28;20089;-60
2020/12/01 21:11:43;;;;;;;32.97;22.20;;;;;;;4.36;78.72;100477.91;9897363;28;20050;-60
2020/12/01 21:16:51;;;;;;;29.63;21.50;;;;;;;4.35;78.83;100481.44;9898361;28;20049;-60
2020/12/01 21:22:26;;;;;;;33.10;22.67;;;;;;;4.39;79.08;100490.91;9888172;28;20049;-60
2020/12/01 21:27:40;;;;;;;33.20;23.33;;;;;;;4.34;78.79;100485.00;9891978;28;20048;-59
2020/12/01 21:32:49;;;;;;;35.85;24.52;;;;;;;4.29;78.55;100476.50;9900502;28;24259;-60
2020/12/01 21:37:51;;;;;;;31.90;21.10;;;;;;;4.32;78.59;100497.41;9888008;28;20079;-61
2020/12/01 21:43:16;;;;;;;26.98;19.40;;;;;;;4.36;78.30;100493.72;9885124;28;20049;-62
2020/12/01 21:48:17;;;;;;;27.55;19.77;;;;;;;4.33;77.73;100499.97;9888660;28;20252;-59
2020/12/01 21:53:57;;;;;;;29.70;20.95;;;;;;;4.28;78.55;100502.00;9888817;28;20045;-61
2020/12/01 21:59:32;;;;;;;28.08;19.90;;;;;;;4.30;78.55;100494.88;9896751;28;22417;-61
2020/12/01 22:04:36;;;;;;;26.05;19.02;;;;;;;4.31;78.82;100495.72;9903779;28;20950;-59
2020/12/01 22:10:08;;;;;;;29.38;20.35;;;;;;;4.32;78.28;100500.91;9889332;28;20053;-60
2020/12/01 22:15:34;;;;;;;27.88;19.75;;;;;;;4.34;78.23;100516.63;9903340;28;20179;-60
2020/12/01 22:20:41;;;;;;;29.85;21.33;;;;;;;4.27;77.52;100500.28;9889755;28;20126;-59
2020/12/01 22:25:51;;;;;;;29.35;20.58;;;;;;;4.32;77.78;100515.88;9895376;28;20053;-60
2020/12/01 22:31:30;;;;;;;29.17;18.67;;;;;;;4.42;76.91;100517.13;9886241;28;20060;-61
2020/12/01 22:36:36;;;;;;;27.52;19.95;;;;;;;4.74;77.82;100517.25;9880652;28;20191;-61
2020/12/01 22:42:11;;;;;;;24.58;18.55;;;;;;;4.53;76.76;100517.41;9882246;28;20077;-59
2020/12/01 22:47:34;;;;;;;22.15;17.02;;;;;;;4.41;77.00;100518.91;9879201;28;21057;-63
2020/12/01 22:52:57;;;;;;;24.00;17.17;;;;;;;4.33;76.97;100520.22;9900120;28;22116;-59
2020/12/01 22:58:01;;;;;;;24.42;17.10;;;;;;;4.33;77.05;100523.69;9864352;28;20056;-62
2020/12/01 23:03:11;;;;;;;26.35;17.27;;;;;;;4.29;76.83;100518.66;9888972;28;20055;-60
2020/12/01 23:08:25;;;;;;;26.80;20.05;;;;;;;4.26;77.22;100509.13;9892614;28;20053;-61
2020/12/01 23:14:01;;;;;;;27.52;20.33;;;;;;;4.28;77.09;100511.66;9902670;28;20087;-60
2020/12/01 23:19:05;;;;;;;29.90;21.52;;;;;;;4.24;77.45;100517.09;9924456;28;20498;-61
2020/12/01 23:24:11;;;;;;;25.40;18.00;;;;;;;4.23;77.96;100520.69;9848119;28;20085;-61
2020/12/01 23:30:11;;;;;;;33.50;23.13;;;;;;;4.27;77.12;100520.53;9927839;28;20127;-61
2020/12/01 23:35:23;;;;;;;29.08;20.42;;;;;;;4.16;77.64;100508.75;9866821;28;21799;-60
2020/12/01 23:40:25;;;;;;;29.83;20.73;;;;;;;4.09;77.62;100494.16;9900964;28;20064;-61
2020/12/01 23:45:27;;;;;;;30.17;21.90;;;;;;;4.11;77.96;100510.72;9911440;28;20069;-61
2020/12/01 23:50:33;;;;;;;28.52;21.38;;;;;;;4.14;77.61;100510.56;9908041;28;20049;-61
2020/12/01 23:55:34;;;;;;;28.27;19.08;;;;;;;4.16;77.69;100503.47;9915709;28;20381;-63
